TimeCST,TemperatureF,Dew PointF,Humidity,Sea Level PressureIn,VisibilityMPH,Wind Direction,Wind SpeedMPH,Gust SpeedMPH,PrecipitationIn,Events,Conditions,WindDirDegrees,DateUTC
12:15 AM,7.2,3.7,86,29.94,7.0,Calm,Calm,-,N/A,,Overcast,0,2014-02-13 06:15:00
12:35 AM,8.6,5.5,87,29.93,7.0,Calm,Calm,-,N/A,,Overcast,0,2014-02-13 06:35:00
12:55 AM,7.9,4.6,87,29.93,7.0,Calm,Calm,-,N/A,,Overcast,0,2014-02-13 06:55:00
1:15 AM,8.6,5.4,87,29.91,7.0,ESE,3.5,-,N/A,,Overcast,120,2014-02-13 07:15:00
1:35 AM,11.1,7.7,86,29.90,7.0,Calm,Calm,-,N/A,,Overcast,0,2014-02-13 07:35:00
1:55 AM,9.5,5.9,85,29.89,7.0,South,3.5,-,N/A,,Overcast,190,2014-02-13 07:55:00
2:15 AM,10.2,6.6,85,29.88,7.0,Calm,Calm,-,N/A,,Overcast,0,2014-02-13 08:15:00
2:35 AM,10.4,6.6,85,29.88,10.0,Calm,Calm,-,N/A,,Overcast,0,2014-02-13 08:35:00
2:55 AM,10.4,6.4,84,29.87,10.0,Calm,Calm,-,N/A,,Overcast,0,2014-02-13 08:55:00
3:15 AM,11.3,7.3,84,29.87,7.0,Calm,Calm,-,N/A,,Overcast,0,2014-02-13 09:15:00
3:35 AM,11.3,7.3,84,29.85,7.0,Calm,Calm,-,N/A,,Overcast,0,2014-02-13 09:35:00
3:55 AM,14.9,11.5,86,29.83,7.0,East,5.8,-,N/A,,Overcast,90,2014-02-13 09:55:00
4:15 AM,16.2,11.8,83,29.81,7.0,East,6.9,-,N/A,,Overcast,100,2014-02-13 10:15:00
4:35 AM,16.7,12.0,82,29.81,7.0,East,5.8,-,N/A,,Overcast,100,2014-02-13 10:35:00
4:55 AM,16.7,12.0,82,29.79,10.0,East,6.9,-,N/A,,Overcast,100,2014-02-13 10:55:00
5:15 AM,18.5,12.7,78,29.78,10.0,ESE,3.5,-,N/A,,Overcast,120,2014-02-13 11:15:00
5:35 AM,20.1,11.8,70,29.79,10.0,SSW,4.6,-,N/A,,Overcast,200,2014-02-13 11:35:00
5:55 AM,19.9,12.2,72,29.76,5.0,ESE,9.2,-,N/A,,Overcast,120,2014-02-13 11:55:00
6:15 AM,19.4,13.6,78,29.74,2.0,ESE,11.5,17.3,N/A,Snow,Light Snow,120,2014-02-13 12:15:00
6:35 AM,19.9,13.6,77,29.72,10.0,SE,8.1,-,N/A,,Overcast,140,2014-02-13 12:35:00
6:55 AM,20.3,13.6,75,29.71,10.0,ESE,9.2,-,N/A,,Overcast,120,2014-02-13 12:55:00
7:15 AM,21.0,13.5,73,29.72,10.0,SSE,4.6,-,N/A,,Overcast,150,2014-02-13 13:15:00
7:35 AM,21.0,15.1,78,29.70,2.0,ESE,6.9,-,N/A,Snow,Light Snow,120,2014-02-13 13:35:00
7:55 AM,21.2,15.8,80,29.68,4.0,ESE,5.8,-,N/A,,Overcast,120,2014-02-13 13:55:00
8:15 AM,22.1,16.7,80,29.68,5.0,ESE,6.9,-,N/A,,Haze,120,2014-02-13 14:15:00
8:35 AM,21.9,17.6,83,29.67,0.8,Calm,Calm,-,N/A,Snow,Light Snow,0,2014-02-13 14:35:00
8:55 AM,22.6,18.3,83,29.66,2.5,SE,3.5,-,N/A,,Overcast,130,2014-02-13 14:55:00
9:15 AM,23.4,18.1,80,29.65,7.0,Calm,Calm,-,N/A,,Overcast,0,2014-02-13 15:15:00
9:35 AM,24.3,18.5,79,29.64,7.0,South,6.9,-,N/A,,Overcast,170,2014-02-13 15:35:00
9:55 AM,25.3,19.4,78,29.64,7.0,SSW,4.6,-,N/A,,Overcast,200,2014-02-13 15:55:00
10:15 AM,26.1,19.8,77,29.63,7.0,South,11.5,-,N/A,,Overcast,190,2014-02-13 16:15:00
10:35 AM,26.4,20.1,77,29.62,7.0,South,6.9,-,N/A,,Overcast,170,2014-02-13 16:35:00
10:55 AM,26.8,20.3,77,29.61,7.0,South,6.9,-,N/A,,Overcast,190,2014-02-13 16:55:00
11:15 AM,28.0,21.0,75,29.60,7.0,South,8.1,-,N/A,,Overcast,190,2014-02-13 17:15:00
11:35 AM,29.3,21.7,73,29.58,7.0,South,9.2,-,N/A,,Overcast,190,2014-02-13 17:35:00
11:55 AM,30.2,22.1,72,29.56,7.0,SSW,9.2,-,0.01,,Overcast,210,2014-02-13 17:55:00
12:15 PM,31.1,22.6,71,29.55,10.0,SSW,10.4,-,N/A,,Overcast,210,2014-02-13 18:15:00
12:35 PM,31.6,23.0,70,29.54,7.0,SW,10.4,18.4,N/A,,Overcast,230,2014-02-13 18:35:00
12:55 PM,32.0,23.5,71,29.52,7.0,SW,9.2,18.4,N/A,,Overcast,220,2014-02-13 18:55:00
1:35 PM,32.4,24.1,72,29.49,10.0,SW,10.4,-,N/A,,Overcast,220,2014-02-13 19:35:00
1:55 PM,32.7,24.6,72,29.48,10.0,SSW,5.8,-,N/A,,Overcast,210,2014-02-13 19:55:00
2:15 PM,33.3,25.2,72,29.49,10.0,West,9.2,-,N/A,,Overcast,280,2014-02-13 20:15:00
2:35 PM,33.6,22.8,65,29.49,10.0,West,17.3,26.5,N/A,,Overcast,280,2014-02-13 20:35:00
2:55 PM,31.1,19.8,63,29.51,7.0,West,23.0,32.2,N/A,,Mostly Cloudy,270,2014-02-13 20:55:00
3:15 PM,29.1,17.6,62,29.53,4.0,West,25.3,33.4,N/A,,Haze,270,2014-02-13 21:15:00
3:35 PM,25.7,16.2,67,29.55,4.0,West,24.2,34.5,N/A,,Haze,270,2014-02-13 21:35:00
3:55 PM,24.3,14.9,68,29.56,5.0,West,23.0,31.1,N/A,,Haze,280,2014-02-13 21:55:00
4:15 PM,23.2,14.4,69,29.57,4.0,West,25.3,32.2,N/A,,Haze,270,2014-02-13 22:15:00
4:35 PM,22.6,13.8,69,29.58,7.0,West,24.2,31.1,N/A,,Overcast,280,2014-02-13 22:35:00
4:55 PM,22.1,14.0,71,29.60,5.0,West,24.2,32.2,N/A,,Haze,280,2014-02-13 22:55:00
5:15 PM,21.2,13.1,71,29.60,5.0,West,23.0,-,N/A,,Haze,280,2014-02-13 23:15:00
5:35 PM,20.3,12.6,72,29.61,5.0,West,26.5,32.2,N/A,,Overcast,280,2014-02-13 23:35:00
5:55 PM,19.9,12.2,72,29.62,5.0,West,20.7,31.1,N/A,,Haze,280,2014-02-13 23:55:00
6:15 PM,19.4,12.6,75,29.63,7.0,West,21.9,29.9,N/A,,Overcast,280,2014-02-14 00:15:00
6:35 PM,18.7,12.0,75,29.64,5.0,West,21.9,26.5,N/A,,Haze,280,2014-02-14 00:35:00
6:55 PM,18.1,10.2,71,29.65,5.0,West,23.0,32.2,N/A,,Haze,280,2014-02-14 00:55:00
7:15 PM,17.6,9.1,69,29.66,7.0,West,20.7,31.1,N/A,,Overcast,280,2014-02-14 01:15:00
7:35 PM,16.2,8.2,71,29.66,10.0,West,21.9,26.5,N/A,,Scattered Clouds,280,2014-02-14 01:35:00
7:55 PM,15.3,7.5,71,29.68,10.0,WNW,11.5,-,N/A,,Clear,300,2014-02-14 01:55:00
8:15 PM,14.4,6.6,71,29.69,10.0,West,5.8,-,N/A,,Clear,280,2014-02-14 02:15:00
8:35 PM,14.0,6.3,71,29.70,10.0,West,9.2,-,N/A,,Scattered Clouds,280,2014-02-14 02:35:00
8:55 PM,13.1,6.1,74,29.70,10.0,West,12.7,-,N/A,,Mostly Cloudy,280,2014-02-14 02:55:00
9:15 PM,12.6,5.4,73,29.70,10.0,West,10.4,-,N/A,,Overcast,280,2014-02-14 03:15:00
9:35 PM,11.7,4.8,74,29.70,10.0,WNW,10.4,-,N/A,,Mostly Cloudy,300,2014-02-14 03:35:00
9:55 PM,11.1,4.5,75,29.71,10.0,West,12.7,-,N/A,,Mostly Cloudy,280,2014-02-14 03:55:00
10:15 PM,10.8,4.1,75,29.71,10.0,WNW,8.1,-,N/A,,Mostly Cloudy,290,2014-02-14 04:15:00
10:35 PM,10.4,3.9,75,29.71,10.0,WNW,12.7,16.1,N/A,,Scattered Clouds,290,2014-02-14 04:35:00
10:55 PM,10.2,3.4,74,29.71,10.0,West,11.5,-,N/A,,Clear,280,2014-02-14 04:55:00
11:15 PM,9.5,3.0,75,29.71,10.0,WSW,4.6,-,N/A,,Clear,250,2014-02-14 05:15:00
11:35 PM,9.0,2.3,74,29.72,10.0,West,3.5,-,N/A,,Clear,280,2014-02-14 05:35:00
11:55 PM,9.0,2.5,75,29.71,10.0,WNW,4.6,-,N/A,,Clear,290,2014-02-14 05:55:00